フェアバンクス の空港の天気 - METARとTAF

フェアバンクス国際空港 ( PAFA / FAI ) - アメリカ アラスカ州フェアバンクス
飛行場実況気象(Metar)
観測時間08/25 10:53 AKDT (08/25 18:53 UTC)
風向・風速静穏 0m/s
視程10km以上
天気現象
全天の4割程度の雲 雲底高度 1830m
全天の8割程度の雲 雲底高度 2440m
全天の8割程度の雲 雲底高度 2740m
気温8.3℃
湿度71%
気圧1012.9hPa
METARPAFA 251853Z 00000KT 10SM SCT060 BKN080 BKN090 08/03 A2990 RMK AO2 SLP129 T00830033
過去の天気等 Google飛行場航空写真 Wunderground天気予報

過去48時間のMETAR

飛行場予報(TAF)
発表時間: 8/25 09:41 AKDT (8/25 17:41 UTC)
予報対象時間: 25日10時 AKDT ~ 26日16時 AKDT
風向・風速不定 2m/s
視程10km以上
全天の4割程度の雲 雲底高度 2130m
全天の8割程度の雲 雲底高度 3050m
25日14時 AKDT から
風向・風速西南西 3m/s
視程10km以上
全天の8割程度の雲 雲底高度 2130m
PAFA 251741Z 2518/2624 VRB04KT P6SM SCT070 BKN100
FM252200 25006KT P6SM BKN070